createdAt,value
2023-05-21T00:00:19.141Z,98404.50
2023-05-21T00:02:45.608Z,98408.72
2023-05-21T00:05:14.493Z,98413.53
2023-05-21T00:07:41.313Z,98407.81
2023-05-21T00:10:08.085Z,98396.69
2023-05-21T00:12:34.471Z,98403.91
2023-05-21T00:15:01.824Z,98372.16
2023-05-21T00:17:28.402Z,98388.09
2023-05-21T00:19:54.853Z,98386.06
2023-05-21T00:22:21.236Z,98386.06
2023-05-21T00:24:47.613Z,98377.28
2023-05-21T00:27:14.352Z,98377.97
2023-05-21T00:29:41.732Z,98383.38
2023-05-21T00:32:10.035Z,98378.78
2023-05-21T00:34:36.439Z,98384.16
2023-05-21T00:37:02.824Z,98375.00
2023-05-21T00:39:29.210Z,98382.97
2023-05-21T00:41:55.602Z,98383.19
2023-05-21T00:44:22.110Z,98380.63
2023-05-21T00:46:48.670Z,98371.09
2023-05-21T00:49:15.181Z,98373.06
2023-05-21T00:51:41.564Z,98368.09
2023-05-21T00:54:07.961Z,98371.03
2023-05-21T00:56:34.328Z,98370.66
2023-05-21T00:59:01.757Z,98377.19
2023-05-21T01:01:28.156Z,98376.41
2023-05-21T01:03:54.809Z,98371.00
2023-05-21T01:06:21.158Z,98362.50
2023-05-21T01:08:47.554Z,98356.88
2023-05-21T01:11:14.144Z,98358.72
2023-05-21T01:13:41.129Z,98354.91
2023-05-21T01:16:08.501Z,98346.88
2023-05-21T01:18:35.721Z,98358.72
2023-05-21T01:21:02.488Z,98348.81
2023-05-21T01:23:29.288Z,98360.22
2023-05-21T01:25:55.648Z,98335.88
2023-05-21T01:28:22.142Z,98354.16
2023-05-21T01:30:48.655Z,98348.84
2023-05-21T01:33:26.186Z,98351.09
2023-05-21T01:36:07.948Z,98343.03
2023-05-21T01:38:41.606Z,98334.28
2023-05-21T01:41:10.702Z,98336.59
2023-05-21T01:43:39.384Z,98335.81
2023-05-21T01:46:07.948Z,98337.34
2023-05-21T01:48:34.810Z,98345.06
2023-05-21T01:51:03.806Z,98335.44
2023-05-21T01:53:30.476Z,98341.63
2023-05-21T01:55:56.887Z,98332.75
2023-05-21T01:58:23.270Z,98340.84
2023-05-21T02:00:51.105Z,98332.09
2023-05-21T02:03:19.093Z,98337.81
2023-05-21T02:05:45.646Z,98345.13
2023-05-21T02:08:12.010Z,98345.16
2023-05-21T02:10:38.596Z,98342.88
2023-05-21T02:13:04.984Z,98329.97
2023-05-21T02:15:31.352Z,98348.22
2023-05-21T02:17:57.738Z,98346.44
2023-05-21T02:20:24.255Z,98340.69
2023-05-21T02:22:50.650Z,98336.94
2023-05-21T02:25:18.326Z,98341.41
2023-05-21T02:27:44.761Z,98340.69
2023-05-21T02:30:12.629Z,98333.75
2023-05-21T02:32:39.158Z,98325.00
2023-05-21T02:35:05.793Z,98326.88
2023-05-21T02:37:33.245Z,98336.09
2023-05-21T02:40:00.247Z,98339.50
2023-05-21T02:42:26.702Z,98328.31
2023-05-21T02:44:53.192Z,98326.03
2023-05-21T02:47:19.987Z,98319.94
2023-05-21T02:49:46.908Z,98327.56
2023-05-21T02:52:13.401Z,98332.59
2023-05-21T02:54:39.771Z,98327.69
2023-05-21T02:57:06.165Z,98320.88
2023-05-21T02:59:32.529Z,98338.16
2023-05-21T03:01:58.978Z,98321.06
2023-05-21T03:04:25.415Z,98343.19
2023-05-21T03:06:51.821Z,98335.66
2023-05-21T03:09:18.203Z,98313.66
2023-05-21T03:11:44.580Z,98325.16
2023-05-21T03:14:10.954Z,98330.50
2023-05-21T03:16:38.407Z,98320.19
2023-05-21T03:19:04.843Z,98329.75
2023-05-21T03:21:31.326Z,98337.50
2023-05-21T03:23:57.697Z,98340.53
2023-05-21T03:26:27.295Z,98336.72
2023-05-21T03:28:54.118Z,98326.03
2023-05-21T03:31:20.573Z,98323.00
2023-05-21T03:33:47.034Z,98327.56
2023-05-21T03:36:13.512Z,98329.88
2023-05-21T03:38:39.882Z,98326.78
2023-05-21T03:41:06.617Z,98331.34
2023-05-21T03:43:33.030Z,98333.63
2023-05-21T03:45:59.502Z,98316.09
2023-05-21T03:48:26.015Z,98331.72
2023-05-21T03:50:52.405Z,98332.13
2023-05-21T03:53:18.801Z,98331.38
2023-05-21T03:55:45.169Z,98337.09
2023-05-21T03:58:11.591Z,98331.75
2023-05-21T04:00:37.961Z,98335.97
2023-05-21T04:03:04.546Z,98339.75
2023-05-21T04:05:30.955Z,98344.38
2023-05-21T04:07:57.347Z,98343.56
2023-05-21T04:10:23.784Z,98327.56
2023-05-21T04:12:50.162Z,98348.19
2023-05-21T04:15:16.540Z,98343.59
2023-05-21T04:17:42.949Z,98347.00
2023-05-21T04:20:09.482Z,98348.56
2023-05-21T04:22:35.841Z,98349.69
2023-05-21T04:25:02.206Z,98358.06
2023-05-21T04:27:28.617Z,98354.28
2023-05-21T04:29:54.993Z,98354.66
2023-05-21T04:32:21.427Z,98368.00
2023-05-21T04:34:47.802Z,98348.88
2023-05-21T04:37:14.191Z,98357.28
2023-05-21T04:39:40.564Z,98359.53
2023-05-21T04:42:06.954Z,98353.81
2023-05-21T04:44:33.334Z,98346.19
2023-05-21T04:46:59.810Z,98342.41
2023-05-21T04:49:26.220Z,98354.19
2023-05-21T04:51:52.674Z,98362.53
2023-05-21T04:54:19.065Z,98354.88
2023-05-21T04:56:45.434Z,98347.63
2023-05-21T04:59:11.872Z,98351.03
2023-05-21T05:01:38.268Z,98337.28
2023-05-21T05:04:05.450Z,98346.34
2023-05-21T05:06:31.896Z,98345.16
2023-05-21T05:08:58.323Z,98347.03
2023-05-21T05:11:24.682Z,98340.50
2023-05-21T05:13:51.688Z,98349.25
2023-05-21T05:16:18.083Z,98349.94
2023-05-21T05:18:44.498Z,98349.13
2023-05-21T05:21:10.983Z,98357.53
2023-05-21T05:23:37.381Z,98354.00
2023-05-21T05:26:03.753Z,98359.69
2023-05-21T05:28:30.126Z,98358.88
2023-05-21T05:30:56.559Z,98368.38
2023-05-21T05:33:22.978Z,98366.06
2023-05-21T05:35:49.376Z,98358.72
2023-05-21T05:38:16.878Z,98366.66
2023-05-21T05:40:43.282Z,98362.00
2023-05-21T05:43:09.643Z,98360.31
2023-05-21T05:45:36.298Z,98350.00
2023-05-21T05:48:02.831Z,98343.03
2023-05-21T05:50:29.281Z,98351.59
2023-05-21T05:52:55.671Z,98358.69
2023-05-21T05:55:22.149Z,98340.97
2023-05-21T05:57:48.542Z,98359.09
2023-05-21T06:00:15.396Z,98355.09
2023-05-21T06:02:42.004Z,98338.28
2023-05-21T06:05:08.752Z,98351.84
2023-05-21T06:07:36.879Z,98347.91
2023-05-21T06:10:03.300Z,98343.13
2023-05-21T06:12:29.659Z,98350.63
2023-05-21T06:14:56.119Z,98346.50
2023-05-21T06:17:22.584Z,98349.34
2023-05-21T06:19:50.074Z,98343.44
2023-05-21T06:22:16.423Z,98339.97
2023-05-21T06:24:42.841Z,98339.13
2023-05-21T06:27:09.247Z,98333.97
2023-05-21T06:29:35.681Z,98338.47
2023-05-21T06:32:02.095Z,98350.19
2023-05-21T06:34:28.524Z,98346.38
2023-05-21T06:36:55.006Z,98335.06
2023-05-21T06:39:21.384Z,98350.06
2023-05-21T06:41:47.753Z,98340.63
2023-05-21T06:44:14.365Z,98346.38
2023-05-21T06:46:40.824Z,98348.75
2023-05-21T06:49:07.229Z,98348.53
2023-05-21T06:51:33.927Z,98333.91
2023-05-21T06:54:00.348Z,98350.84
2023-05-21T06:56:26.735Z,98343.19
2023-05-21T06:58:53.177Z,98339.22
2023-05-21T07:01:19.641Z,98337.75
2023-05-21T07:03:46.178Z,98334.38
2023-05-21T07:06:12.600Z,98330.53
2023-05-21T07:08:38.966Z,98340.91
2023-05-21T07:11:05.430Z,98332.28
2023-05-21T07:13:31.826Z,98338.09
2023-05-21T07:15:58.213Z,98335.38
2023-05-21T07:18:24.649Z,98348.25
2023-05-21T07:20:51.048Z,98328.84
2023-05-21T07:23:17.407Z,98332.19
2023-05-21T07:25:43.802Z,98333.03
2023-05-21T07:28:10.199Z,98331.41
2023-05-21T07:30:37.639Z,98330.19
2023-05-21T07:33:04.068Z,98343.81
2023-05-21T07:35:30.585Z,98332.91
2023-05-21T07:37:57.054Z,98338.66
2023-05-21T07:40:23.538Z,98336.88
2023-05-21T07:42:50.099Z,98344.09
2023-05-21T07:45:16.615Z,98333.75
2023-05-21T07:47:44.748Z,98324.38
2023-05-21T07:50:11.735Z,98318.69
2023-05-21T07:52:38.212Z,98314.34
2023-05-21T07:55:04.962Z,98319.72
2023-05-21T07:57:31.359Z,98320.59
2023-05-21T07:59:57.771Z,98320.41
2023-05-21T08:02:24.307Z,98327.63
2023-05-21T08:04:50.856Z,98334.94
2023-05-21T08:07:17.264Z,98319.75
2023-05-21T08:09:43.715Z,98323.91
2023-05-21T08:12:10.088Z,98336.78
2023-05-21T08:14:36.444Z,98329.03
2023-05-21T08:17:02.838Z,98333.22
2023-05-21T08:19:29.322Z,98329.38
2023-05-21T08:21:55.799Z,98339.94
2023-05-21T08:24:23.912Z,98336.44
2023-05-21T08:26:50.292Z,98338.72
2023-05-21T08:29:16.671Z,98343.06
2023-05-21T08:31:43.129Z,98340.53
2023-05-21T08:34:09.600Z,98334.03
2023-05-21T08:36:36.004Z,98334.94
2023-05-21T08:39:02.464Z,98339.16
2023-05-21T08:41:31.013Z,98342.16
2023-05-21T08:43:57.396Z,98345.78
2023-05-21T08:46:24.121Z,98347.03
2023-05-21T08:48:51.831Z,98335.41
2023-05-21T08:51:18.201Z,98342.94
2023-05-21T08:53:44.591Z,98334.94
2023-05-21T08:56:11.335Z,98341.28
2023-05-21T08:58:38.714Z,98350.44
2023-05-21T09:01:06.253Z,98349.28
2023-05-21T09:03:32.872Z,98348.19
2023-05-21T09:05:59.948Z,98336.25
2023-05-21T09:08:31.139Z,98341.09
2023-05-21T09:10:57.513Z,98334.47
2023-05-21T09:13:25.139Z,98341.19
2023-05-21T09:15:51.544Z,98336.06
2023-05-21T09:18:18.003Z,98328.31
2023-05-21T09:20:44.378Z,98332.59
2023-05-21T09:23:10.819Z,98341.25
2023-05-21T09:25:38.485Z,98339.06
2023-05-21T09:28:11.790Z,98347.69
2023-05-21T09:30:44.311Z,98333.13
2023-05-21T09:33:10.764Z,98350.97
2023-05-21T09:35:38.189Z,98337.59
2023-05-21T09:38:08.605Z,98339.47
2023-05-21T09:40:35.461Z,98341.44
2023-05-21T09:43:02.107Z,98348.00
2023-05-21T09:45:28.660Z,98338.56
2023-05-21T09:47:56.258Z,98333.47
2023-05-21T09:50:25.836Z,98332.09
2023-05-21T09:52:52.491Z,98350.94
2023-05-21T09:55:22.819Z,98343.06
2023-05-21T09:57:50.925Z,98332.16
2023-05-21T10:00:28.560Z,98338.41
2023-05-21T10:02:56.652Z,98341.94
2023-05-21T10:05:28.372Z,98345.75
2023-05-21T10:08:02.666Z,98325.66
2023-05-21T10:10:30.558Z,98330.00
2023-05-21T10:13:06.929Z,98331.13
2023-05-21T10:15:38.226Z,98327.44
2023-05-21T10:18:04.721Z,98326.75
2023-05-21T10:20:31.421Z,98324.44
2023-05-21T10:22:58.866Z,98327.69
2023-05-21T10:25:26.056Z,98331.00
2023-05-21T10:27:54.628Z,98325.72
2023-05-21T10:30:21.489Z,98313.41
2023-05-21T10:32:48.083Z,98315.50
2023-05-21T10:35:16.306Z,98317.13
2023-05-21T10:37:46.042Z,98304.00
2023-05-21T10:40:13.177Z,98314.63
2023-05-21T10:43:20.791Z,98310.78
2023-05-21T10:46:10.576Z,98304.16
2023-05-21T10:49:02.634Z,98306.00
2023-05-21T10:51:55.149Z,98305.63
2023-05-21T10:54:39.974Z,98302.34
2023-05-21T10:57:26.822Z,98300.38
2023-05-21T10:59:53.213Z,98300.66
2023-05-21T11:02:19.909Z,98306.47
2023-05-21T11:04:48.639Z,98302.28
2023-05-21T11:07:15.684Z,98304.03
2023-05-21T11:09:42.057Z,98307.63
2023-05-21T11:12:08.501Z,98299.31
2023-05-21T11:14:37.337Z,98299.19
2023-05-21T11:17:10.348Z,98307.16
2023-05-21T11:19:39.197Z,98307.97
2023-05-21T11:22:26.321Z,98289.66
2023-05-21T11:24:54.708Z,98290.91
2023-05-21T11:27:35.738Z,98290.25
2023-05-21T11:30:19.067Z,98304.50
2023-05-21T11:33:07.518Z,98302.22
2023-05-21T11:35:39.059Z,98288.75
2023-05-21T11:38:09.050Z,98273.72
2023-05-21T11:40:35.803Z,98296.31
2023-05-21T11:43:02.438Z,98289.59
2023-05-21T11:45:30.585Z,98300.00
2023-05-21T11:47:56.990Z,98274.38
2023-05-21T11:50:23.409Z,98294.28
2023-05-21T11:52:50.266Z,98292.13
2023-05-21T11:55:22.141Z,98290.50
2023-05-21T11:57:52.899Z,98281.41
2023-05-21T12:00:19.305Z,98283.84
2023-05-21T12:02:48.064Z,98287.41
2023-05-21T12:05:14.581Z,98271.25
2023-05-21T12:07:40.970Z,98266.59
2023-05-21T12:10:07.948Z,98272.88
2023-05-21T12:12:49.970Z,98274.06
2023-05-21T12:15:20.990Z,98268.09
2023-05-21T12:17:49.880Z,98267.31
2023-05-21T12:20:17.339Z,98269.41
2023-05-21T12:22:44.522Z,98266.09
2023-05-21T12:25:11.062Z,98259.47
2023-05-21T12:27:37.561Z,98259.81
2023-05-21T12:30:04.334Z,98272.22
2023-05-21T12:32:30.882Z,98262.91
2023-05-21T12:34:57.304Z,98255.31
2023-05-21T12:37:25.472Z,98260.00
2023-05-21T12:39:58.409Z,98270.31
2023-05-21T12:42:25.971Z,98269.78
2023-05-21T12:44:53.965Z,98271.19
2023-05-21T12:47:25.564Z,98260.38
2023-05-21T12:49:55.387Z,98264.59
2023-05-21T12:52:22.870Z,98254.38
2023-05-21T12:54:51.943Z,98256.44
2023-05-21T12:57:22.650Z,98253.34
2023-05-21T12:59:51.434Z,98252.59
2023-05-21T13:02:24.920Z,98260.34
2023-05-21T13:04:58.100Z,98243.03
2023-05-21T13:07:25.782Z,98238.94
2023-05-21T13:09:53.221Z,98239.09
2023-05-21T13:12:25.314Z,98240.72
2023-05-21T13:14:53.053Z,98224.50
2023-05-21T13:17:21.446Z,98225.84
2023-05-21T13:20:06.882Z,98233.97
2023-05-21T13:22:33.254Z,98230.50
2023-05-21T13:24:59.754Z,98220.63
2023-05-21T13:27:26.176Z,98220.03
2023-05-21T13:29:52.602Z,98215.03
2023-05-21T13:32:19.023Z,98214.91
2023-05-21T13:34:45.545Z,98210.19
2023-05-21T13:37:11.913Z,98205.28
2023-05-21T13:39:38.358Z,98212.59
2023-05-21T13:42:05.000Z,98209.22
2023-05-21T13:44:32.043Z,98204.44
2023-05-21T13:47:00.827Z,98207.38
2023-05-21T13:49:28.175Z,98219.84
2023-05-21T13:51:54.841Z,98212.41
2023-05-21T13:54:21.212Z,98211.50
2023-05-21T13:56:47.582Z,98212.13
2023-05-21T13:59:14.023Z,98213.47
2023-05-21T14:01:40.415Z,98221.13
2023-05-21T14:04:06.879Z,98201.06
2023-05-21T14:06:33.252Z,98219.09
2023-05-21T14:08:59.845Z,98213.19
2023-05-21T14:11:28.255Z,98200.16
2023-05-21T14:13:54.693Z,98224.69
2023-05-21T14:16:21.262Z,98219.91
2023-05-21T14:18:47.723Z,98219.38
2023-05-21T14:21:14.142Z,98226.25
2023-05-21T14:23:40.516Z,98221.34
2023-05-21T14:26:07.030Z,98224.72
2023-05-21T14:28:33.409Z,98223.78
2023-05-21T14:30:59.892Z,98219.66
2023-05-21T14:33:27.337Z,98224.16
2023-05-21T14:35:53.841Z,98227.25
2023-05-21T14:38:20.276Z,98225.66
2023-05-21T14:40:46.647Z,98222.19
2023-05-21T14:43:13.131Z,98223.97
2023-05-21T14:45:39.610Z,98220.94
2023-05-21T14:48:07.216Z,98223.91
2023-05-21T14:50:36.834Z,98219.78
2023-05-21T14:53:07.443Z,98222.69
2023-05-21T14:55:36.947Z,98218.88
2023-05-21T14:58:04.639Z,98210.06
2023-05-21T15:00:31.678Z,98214.56
2023-05-21T15:02:58.142Z,98216.34
2023-05-21T15:05:28.071Z,98223.56
2023-05-21T15:07:54.681Z,98215.81
2023-05-21T15:10:21.519Z,98202.50
2023-05-21T15:12:48.114Z,98210.06
2023-05-21T15:15:14.596Z,98219.75
2023-05-21T15:17:41.062Z,98229.66
2023-05-21T15:20:07.957Z,98202.00
2023-05-21T15:22:34.338Z,98220.94
2023-05-21T15:25:01.428Z,98227.72
2023-05-21T15:27:27.880Z,98208.34
2023-05-21T15:29:54.421Z,98195.78
2023-05-21T15:32:20.886Z,98216.72
2023-05-21T15:34:50.249Z,98213.22
2023-05-21T15:37:16.802Z,98216.44
2023-05-21T15:39:43.943Z,98213.53
2023-05-21T15:42:11.354Z,98213.25
2023-05-21T15:44:38.405Z,98210.25
2023-05-21T15:47:05.230Z,98205.47
2023-05-21T15:49:31.673Z,98207.56
2023-05-21T15:51:58.316Z,98216.00
2023-05-21T15:54:24.804Z,98210.25
2023-05-21T15:56:51.184Z,98215.38
2023-05-21T15:59:17.590Z,98204.88
2023-05-21T16:01:44.026Z,98207.13
2023-05-21T16:04:10.580Z,98209.09
2023-05-21T16:06:37.718Z,98199.78
2023-05-21T16:09:04.171Z,98216.66
2023-05-21T16:11:30.550Z,98207.03
2023-05-21T16:13:56.971Z,98205.22
2023-05-21T16:16:24.652Z,98207.19
2023-05-21T16:18:51.403Z,98208.25
2023-05-21T16:21:18.023Z,98203.56
2023-05-21T16:23:44.415Z,98192.72
2023-05-21T16:26:11.116Z,98204.47
2023-05-21T16:28:37.826Z,98208.25
2023-05-21T16:31:04.579Z,98196.78
2023-05-21T16:33:30.976Z,98191.81
2023-05-21T16:35:57.364Z,98201.16
2023-05-21T16:38:23.817Z,98206.88
2023-05-21T16:40:50.187Z,98208.69
2023-05-21T16:43:16.756Z,98202.50
2023-05-21T16:45:45.114Z,98204.63
2023-05-21T16:48:13.557Z,98194.94
2023-05-21T16:50:40.597Z,98177.66
2023-05-21T16:53:07.027Z,98196.59
2023-05-21T16:55:34.634Z,98192.66
2023-05-21T16:58:03.889Z,98188.91
2023-05-21T17:00:30.833Z,98178.34
2023-05-21T17:02:57.447Z,98205.09
2023-05-21T17:05:23.948Z,98207.34
2023-05-21T17:07:50.378Z,98198.78
2023-05-21T17:10:19.187Z,98195.16
2023-05-21T17:12:45.561Z,98195.41
2023-05-21T17:15:11.951Z,98183.53
2023-05-21T17:17:39.389Z,98199.31
2023-05-21T17:20:06.465Z,98192.50
2023-05-21T17:22:32.866Z,98199.94
2023-05-21T17:25:00.325Z,98198.00
2023-05-21T17:27:26.763Z,98200.69
2023-05-21T17:29:54.217Z,98190.63
2023-05-21T17:32:20.623Z,98202.66
2023-05-21T17:34:47.055Z,98194.91
2023-05-21T17:37:13.449Z,98187.88
2023-05-21T17:39:40.539Z,98204.84
2023-05-21T17:42:07.023Z,98191.25
2023-05-21T17:44:33.394Z,98208.63
2023-05-21T17:46:59.931Z,98185.22
2023-05-21T17:49:26.486Z,98199.19
2023-05-21T17:51:52.987Z,98189.47
2023-05-21T17:54:19.557Z,98205.16
2023-05-21T17:56:47.035Z,98184.66
2023-05-21T17:59:14.842Z,98203.78
2023-05-21T18:01:41.309Z,98187.41
2023-05-21T18:04:07.937Z,98208.28
2023-05-21T18:06:34.365Z,98206.50
2023-05-21T18:09:00.762Z,98209.34
2023-05-21T18:11:27.220Z,98216.25
2023-05-21T18:13:53.896Z,98216.06
2023-05-21T18:16:20.601Z,98211.84
2023-05-21T18:18:47.130Z,98214.13
2023-05-21T18:21:13.643Z,98206.22
2023-05-21T18:23:40.014Z,98212.44
2023-05-21T18:26:06.412Z,98230.47
2023-05-21T18:28:32.867Z,98209.63
2023-05-21T18:31:02.332Z,98217.09
2023-05-21T18:33:28.714Z,98220.19
2023-05-21T18:35:55.114Z,98228.06
2023-05-21T18:38:21.611Z,98232.81
2023-05-21T18:40:48.003Z,98242.34
2023-05-21T18:43:14.473Z,98234.09
2023-05-21T18:45:40.874Z,98238.41
2023-05-21T18:48:07.351Z,98225.25
2023-05-21T18:50:33.784Z,98234.47
2023-05-21T18:53:00.223Z,98232.25
2023-05-21T18:55:26.663Z,98241.34
2023-05-21T18:57:53.147Z,98237.00
2023-05-21T19:00:19.737Z,98239.69
2023-05-21T19:02:46.173Z,98240.53
2023-05-21T19:05:12.983Z,98231.50
2023-05-21T19:07:39.415Z,98237.31
2023-05-21T19:10:06.344Z,98242.00
2023-05-21T19:12:32.751Z,98247.59
2023-05-21T19:14:59.117Z,98249.66
2023-05-21T19:17:25.540Z,98241.88
2023-05-21T19:19:52.990Z,98254.59
2023-05-21T19:22:19.461Z,98234.94
2023-05-21T19:24:45.859Z,98254.91
2023-05-21T19:27:12.236Z,98250.78
2023-05-21T19:29:38.610Z,98249.25
2023-05-21T19:32:05.355Z,98249.44
2023-05-21T19:34:31.852Z,98242.03
2023-05-21T19:36:58.395Z,98263.25
2023-05-21T19:39:24.770Z,98260.16
2023-05-21T19:41:52.236Z,98264.47
2023-05-21T19:44:18.704Z,98270.25
2023-05-21T19:46:45.082Z,98268.84
2023-05-21T19:49:11.521Z,98262.94
2023-05-21T19:51:37.987Z,98262.53
2023-05-21T19:54:04.402Z,98268.28
2023-05-21T19:56:30.793Z,98262.22
2023-05-21T19:58:58.282Z,98257.16
2023-05-21T20:01:25.763Z,98250.41
2023-05-21T20:03:52.273Z,98261.47
2023-05-21T20:06:19.019Z,98262.66
2023-05-21T20:08:45.560Z,98274.47
2023-05-21T20:11:12.998Z,98265.34
2023-05-21T20:13:40.523Z,98259.75
2023-05-21T20:16:07.126Z,98263.16
2023-05-21T20:18:33.558Z,98258.41
2023-05-21T20:20:59.925Z,98258.59
2023-05-21T20:23:26.374Z,98254.72
2023-05-21T20:25:52.773Z,98252.53
2023-05-21T20:28:21.187Z,98246.41
2023-05-21T20:30:54.181Z,98260.63
2023-05-21T20:33:21.606Z,98253.66
2023-05-21T20:35:48.003Z,98258.81
2023-05-21T20:38:14.488Z,98265.88
2023-05-21T20:40:41.060Z,98261.31
2023-05-21T20:43:07.447Z,98253.41
2023-05-21T20:45:33.832Z,98241.72
2023-05-21T20:48:00.409Z,98236.72
2023-05-21T20:50:27.892Z,98247.13
2023-05-21T20:52:54.677Z,98255.59
2023-05-21T20:55:21.046Z,98265.53
2023-05-21T20:57:47.435Z,98257.59
2023-05-21T21:00:14.053Z,98256.78
2023-05-21T21:02:40.616Z,98262.16
2023-05-21T21:05:07.229Z,98268.19
2023-05-21T21:07:33.598Z,98259.81
2023-05-21T21:09:59.986Z,98261.44
2023-05-21T21:12:27.477Z,98255.59
2023-05-21T21:14:54.087Z,98259.13
2023-05-21T21:17:20.757Z,98266.16
2023-05-21T21:19:47.184Z,98255.84
2023-05-21T21:22:14.820Z,98258.41
2023-05-21T21:24:41.208Z,98260.13
2023-05-21T21:27:07.635Z,98266.06
2023-05-21T21:29:34.017Z,98259.59
2023-05-21T21:32:00.436Z,98270.69
2023-05-21T21:34:26.826Z,98272.06
2023-05-21T21:36:54.067Z,98268.72
2023-05-21T21:39:20.441Z,98268.25
2023-05-21T21:41:46.831Z,98262.72
2023-05-21T21:44:13.286Z,98257.47
2023-05-21T21:46:39.686Z,98268.56
2023-05-21T21:49:06.096Z,98274.84
2023-05-21T21:51:33.848Z,98277.53
2023-05-21T21:54:00.234Z,98274.94
2023-05-21T21:56:26.705Z,98269.06
2023-05-21T21:58:53.077Z,98273.63
2023-05-21T22:01:19.567Z,98269.31
2023-05-21T22:03:46.064Z,98273.16
2023-05-21T22:06:12.542Z,98266.94
2023-05-21T22:08:38.935Z,98249.94
2023-05-21T22:11:05.350Z,98274.56
2023-05-21T22:13:31.756Z,98263.34
2023-05-21T22:15:58.242Z,98274.69
2023-05-21T22:18:38.701Z,98274.81
2023-05-21T22:21:06.423Z,98264.94
2023-05-21T22:23:32.810Z,98244.66
2023-05-21T22:25:59.179Z,98250.28
2023-05-21T22:28:25.556Z,98247.53
2023-05-21T22:30:51.979Z,98266.03
2023-05-21T22:33:18.453Z,98267.84
2023-05-21T22:35:44.860Z,98250.25
2023-05-21T22:38:11.291Z,98265.28
2023-05-21T22:40:37.801Z,98264.84
2023-05-21T22:43:04.668Z,98259.34
2023-05-21T22:45:31.057Z,98261.13
2023-05-21T22:47:57.475Z,98263.19
2023-05-21T22:50:24.107Z,98260.50
2023-05-21T22:52:51.537Z,98267.88
2023-05-21T22:55:17.994Z,98259.13
2023-05-21T22:57:44.563Z,98253.88
2023-05-21T23:00:11.351Z,98251.31
2023-05-21T23:02:37.865Z,98239.03
2023-05-21T23:05:04.972Z,98253.03
2023-05-21T23:07:31.418Z,98244.78
2023-05-21T23:09:58.841Z,98244.31
2023-05-21T23:12:25.219Z,98253.75
2023-05-21T23:14:51.623Z,98248.44
2023-05-21T23:17:18.015Z,98247.56
2023-05-21T23:19:44.398Z,98248.28
2023-05-21T23:22:10.780Z,98245.81
2023-05-21T23:24:37.200Z,98246.22
2023-05-21T23:27:03.725Z,98243.44
2023-05-21T23:29:30.417Z,98241.34
2023-05-21T23:31:56.885Z,98237.66
2023-05-21T23:34:23.322Z,98245.34
2023-05-21T23:36:49.684Z,98243.75
2023-05-21T23:39:16.127Z,98241.22
2023-05-21T23:41:42.505Z,98223.59
2023-05-21T23:44:08.906Z,98251.00
2023-05-21T23:46:35.287Z,98232.53
2023-05-21T23:49:01.666Z,98237.56
2023-05-21T23:51:28.025Z,98220.41
2023-05-21T23:53:54.409Z,98235.50
2023-05-21T23:56:20.770Z,98236.81
2023-05-21T23:58:47.184Z,98229.34
